sensor_id;sensor_type;location;lat;lon;timestamp;P1;durP1;ratioP1;P2;durP2;ratioP2
25637;SDS011;13496;51.040;13.680;2024-03-06T00:01:02;8.02;;;7.32;;
25637;SDS011;13496;51.040;13.680;2024-03-06T00:06:04;7.50;;;6.80;;
25637;SDS011;13496;51.040;13.680;2024-03-06T00:11:06;7.15;;;6.60;;
25637;SDS011;13496;51.040;13.680;2024-03-06T00:16:09;7.03;;;6.43;;
25637;SDS011;13496;51.040;13.680;2024-03-06T00:21:11;7.43;;;6.82;;
25637;SDS011;13496;51.040;13.680;2024-03-06T00:26:13;7.30;;;6.60;;
25637;SDS011;13496;51.040;13.680;2024-03-06T00:31:15;7.72;;;7.03;;
25637;SDS011;13496;51.040;13.680;2024-03-06T00:36:16;7.35;;;6.75;;
25637;SDS011;13496;51.040;13.680;2024-03-06T00:41:18;7.15;;;6.53;;
25637;SDS011;13496;51.040;13.680;2024-03-06T00:46:20;7.22;;;6.60;;
25637;SDS011;13496;51.040;13.680;2024-03-06T00:51:22;7.65;;;7.05;;
25637;SDS011;13496;51.040;13.680;2024-03-06T00:56:24;7.78;;;7.07;;
25637;SDS011;13496;51.040;13.680;2024-03-06T01:01:26;8.55;;;7.68;;
25637;SDS011;13496;51.040;13.680;2024-03-06T01:06:29;7.95;;;7.25;;
25637;SDS011;13496;51.040;13.680;2024-03-06T01:11:30;7.43;;;6.72;;
25637;SDS011;13496;51.040;13.680;2024-03-06T01:16:32;7.00;;;6.40;;
25637;SDS011;13496;51.040;13.680;2024-03-06T01:21:34;7.35;;;6.65;;
25637;SDS011;13496;51.040;13.680;2024-03-06T01:26:36;7.78;;;7.07;;
25637;SDS011;13496;51.040;13.680;2024-03-06T01:31:38;7.45;;;6.80;;
25637;SDS011;13496;51.040;13.680;2024-03-06T01:36:39;7.65;;;7.05;;
25637;SDS011;13496;51.040;13.680;2024-03-06T01:41:45;7.65;;;7.05;;
25637;SDS011;13496;51.040;13.680;2024-03-06T01:46:48;7.65;;;6.90;;
25637;SDS011;13496;51.040;13.680;2024-03-06T01:51:51;7.28;;;6.57;;
25637;SDS011;13496;51.040;13.680;2024-03-06T01:56:55;8.10;;;7.40;;
25637;SDS011;13496;51.040;13.680;2024-03-06T02:01:58;8.20;;;7.40;;
25637;SDS011;13496;51.040;13.680;2024-03-06T02:07:02;7.45;;;6.75;;
25637;SDS011;13496;51.040;13.680;2024-03-06T02:12:05;7.60;;;6.90;;
25637;SDS011;13496;51.040;13.680;2024-03-06T02:17:09;7.07;;;6.47;;
25637;SDS011;13496;51.040;13.680;2024-03-06T02:22:11;7.05;;;6.45;;
25637;SDS011;13496;51.040;13.680;2024-03-06T02:27:13;8.32;;;7.50;;
25637;SDS011;13496;51.040;13.680;2024-03-06T02:32:15;7.35;;;6.75;;
25637;SDS011;13496;51.040;13.680;2024-03-06T02:37:19;7.30;;;6.60;;
25637;SDS011;13496;51.040;13.680;2024-03-06T02:42:21;7.20;;;6.60;;
25637;SDS011;13496;51.040;13.680;2024-03-06T02:47:23;7.22;;;6.53;;
25637;SDS011;13496;51.040;13.680;2024-03-06T02:52:25;7.00;;;6.40;;
25637;SDS011;13496;51.040;13.680;2024-03-06T02:57:27;7.60;;;7.00;;
25637;SDS011;13496;51.040;13.680;2024-03-06T03:02:29;7.35;;;6.65;;
25637;SDS011;13496;51.040;13.680;2024-03-06T03:07:33;7.40;;;6.80;;
25637;SDS011;13496;51.040;13.680;2024-03-06T03:12:34;7.05;;;6.45;;
25637;SDS011;13496;51.040;13.680;2024-03-06T03:17:36;6.90;;;6.30;;
25637;SDS011;13496;51.040;13.680;2024-03-06T03:22:39;7.03;;;6.40;;
25637;SDS011;13496;51.040;13.680;2024-03-06T03:27:41;7.18;;;6.50;;
25637;SDS011;13496;51.040;13.680;2024-03-06T03:32:45;7.53;;;6.78;;
25637;SDS011;13496;51.040;13.680;2024-03-06T03:37:46;6.75;;;6.15;;
25637;SDS011;13496;51.040;13.680;2024-03-06T03:42:48;6.88;;;6.30;;
25637;SDS011;13496;51.040;13.680;2024-03-06T03:47:50;7.20;;;6.55;;
25637;SDS011;13496;51.040;13.680;2024-03-06T03:52:52;7.25;;;6.65;;
25637;SDS011;13496;51.040;13.680;2024-03-06T03:57:54;6.97;;;6.43;;
25637;SDS011;13496;51.040;13.680;2024-03-06T04:02:55;7.10;;;6.50;;
25637;SDS011;13496;51.040;13.680;2024-03-06T04:07:57;6.72;;;6.20;;
25637;SDS011;13496;51.040;13.680;2024-03-06T04:12:59;7.45;;;6.75;;
25637;SDS011;13496;51.040;13.680;2024-03-06T04:18:01;7.10;;;6.50;;
25637;SDS011;13496;51.040;13.680;2024-03-06T04:23:03;7.10;;;6.50;;
25637;SDS011;13496;51.040;13.680;2024-03-06T04:28:05;6.88;;;6.28;;
25637;SDS011;13496;51.040;13.680;2024-03-06T04:33:09;6.68;;;6.07;;
25637;SDS011;13496;51.040;13.680;2024-03-06T04:38:15;7.10;;;6.43;;
25637;SDS011;13496;51.040;13.680;2024-03-06T04:43:17;7.00;;;6.40;;
25637;SDS011;13496;51.040;13.680;2024-03-06T04:48:18;7.60;;;6.90;;
25637;SDS011;13496;51.040;13.680;2024-03-06T04:53:20;6.75;;;6.20;;
25637;SDS011;13496;51.040;13.680;2024-03-06T04:58:22;7.07;;;6.55;;
25637;SDS011;13496;51.040;13.680;2024-03-06T05:03:24;7.70;;;7.00;;
25637;SDS011;13496;51.040;13.680;2024-03-06T05:08:26;7.30;;;6.70;;
25637;SDS011;13496;51.040;13.680;2024-03-06T05:13:28;7.63;;;6.90;;
25637;SDS011;13496;51.040;13.680;2024-03-06T05:18:29;7.18;;;6.57;;
25637;SDS011;13496;51.040;13.680;2024-03-06T05:23:31;7.70;;;7.00;;
25637;SDS011;13496;51.040;13.680;2024-03-06T05:28:33;7.20;;;6.60;;
25637;SDS011;13496;51.040;13.680;2024-03-06T05:33:35;8.23;;;7.40;;
25637;SDS011;13496;51.040;13.680;2024-03-06T05:38:36;7.50;;;6.80;;
25637;SDS011;13496;51.040;13.680;2024-03-06T05:43:38;7.65;;;6.88;;
25637;SDS011;13496;51.040;13.680;2024-03-06T05:48:42;7.93;;;7.13;;
25637;SDS011;13496;51.040;13.680;2024-03-06T05:53:44;7.95;;;7.20;;
25637;SDS011;13496;51.040;13.680;2024-03-06T05:58:46;7.82;;;7.13;;
25637;SDS011;13496;51.040;13.680;2024-03-06T06:03:50;7.38;;;6.65;;
25637;SDS011;13496;51.040;13.680;2024-03-06T06:08:52;8.93;;;7.30;;
25637;SDS011;13496;51.040;13.680;2024-03-06T06:13:54;7.88;;;7.07;;
25637;SDS011;13496;51.040;13.680;2024-03-06T06:18:56;7.95;;;7.15;;
25637;SDS011;13496;51.040;13.680;2024-03-06T06:23:58;8.23;;;7.43;;
25637;SDS011;13496;51.040;13.680;2024-03-06T06:29:00;8.23;;;7.53;;
25637;SDS011;13496;51.040;13.680;2024-03-06T06:34:02;7.25;;;6.60;;
25637;SDS011;13496;51.040;13.680;2024-03-06T06:39:03;8.20;;;7.40;;
25637;SDS011;13496;51.040;13.680;2024-03-06T06:44:07;8.05;;;7.18;;
25637;SDS011;13496;51.040;13.680;2024-03-06T06:49:09;8.00;;;7.20;;
25637;SDS011;13496;51.040;13.680;2024-03-06T06:54:11;7.93;;;7.10;;
25637;SDS011;13496;51.040;13.680;2024-03-06T06:59:13;8.25;;;7.45;;
25637;SDS011;13496;51.040;13.680;2024-03-06T07:04:14;9.23;;;7.57;;
25637;SDS011;13496;51.040;13.680;2024-03-06T07:09:21;7.65;;;6.97;;
25637;SDS011;13496;51.040;13.680;2024-03-06T07:14:23;7.63;;;6.93;;
25637;SDS011;13496;51.040;13.680;2024-03-06T07:19:25;8.68;;;7.80;;
25637;SDS011;13496;51.040;13.680;2024-03-06T07:24:26;7.90;;;7.20;;
25637;SDS011;13496;51.040;13.680;2024-03-06T07:29:28;7.80;;;7.00;;
25637;SDS011;13496;51.040;13.680;2024-03-06T07:34:31;8.25;;;7.53;;
25637;SDS011;13496;51.040;13.680;2024-03-06T07:39:33;7.68;;;6.97;;
25637;SDS011;13496;51.040;13.680;2024-03-06T07:44:36;8.15;;;7.35;;
25637;SDS011;13496;51.040;13.680;2024-03-06T07:49:38;8.10;;;7.40;;
25637;SDS011;13496;51.040;13.680;2024-03-06T07:54:40;8.00;;;7.40;;
25637;SDS011;13496;51.040;13.680;2024-03-06T07:59:42;8.73;;;7.32;;
25637;SDS011;13496;51.040;13.680;2024-03-06T08:04:43;7.57;;;6.88;;
25637;SDS011;13496;51.040;13.680;2024-03-06T08:09:45;8.00;;;7.20;;
25637;SDS011;13496;51.040;13.680;2024-03-06T08:14:47;7.45;;;6.80;;
25637;SDS011;13496;51.040;13.680;2024-03-06T08:19:49;8.35;;;7.53;;
25637;SDS011;13496;51.040;13.680;2024-03-06T08:24:51;7.85;;;7.07;;
25637;SDS011;13496;51.040;13.680;2024-03-06T08:29:53;8.18;;;7.30;;
25637;SDS011;13496;51.040;13.680;2024-03-06T08:34:54;8.25;;;7.47;;
25637;SDS011;13496;51.040;13.680;2024-03-06T08:39:58;7.68;;;6.97;;
25637;SDS011;13496;51.040;13.680;2024-03-06T08:45:03;8.07;;;7.38;;
25637;SDS011;13496;51.040;13.680;2024-03-06T08:50:06;8.48;;;7.68;;
25637;SDS011;13496;51.040;13.680;2024-03-06T08:55:11;8.35;;;7.55;;
25637;SDS011;13496;51.040;13.680;2024-03-06T09:00:13;7.63;;;6.93;;
25637;SDS011;13496;51.040;13.680;2024-03-06T09:05:16;7.97;;;7.20;;
25637;SDS011;13496;51.040;13.680;2024-03-06T09:10:17;8.90;;;8.10;;
25637;SDS011;13496;51.040;13.680;2024-03-06T09:15:20;8.35;;;7.55;;
25637;SDS011;13496;51.040;13.680;2024-03-06T09:20:22;8.23;;;7.53;;
25637;SDS011;13496;51.040;13.680;2024-03-06T09:25:25;8.15;;;7.45;;
25637;SDS011;13496;51.040;13.680;2024-03-06T09:30:27;7.93;;;7.30;;
25637;SDS011;13496;51.040;13.680;2024-03-06T09:35:29;8.02;;;7.32;;
25637;SDS011;13496;51.040;13.680;2024-03-06T09:40:31;8.13;;;7.43;;
25637;SDS011;13496;51.040;13.680;2024-03-06T09:45:33;8.80;;;8.00;;
25637;SDS011;13496;51.040;13.680;2024-03-06T09:50:35;8.63;;;7.82;;
25637;SDS011;13496;51.040;13.680;2024-03-06T09:55:39;9.15;;;8.27;;
25637;SDS011;13496;51.040;13.680;2024-03-06T10:00:43;8.35;;;7.55;;
25637;SDS011;13496;51.040;13.680;2024-03-06T10:05:45;7.97;;;7.28;;
25637;SDS011;13496;51.040;13.680;2024-03-06T10:10:48;8.32;;;7.63;;
25637;SDS011;13496;51.040;13.680;2024-03-06T10:16:01;9.15;;;7.32;;
25637;SDS011;13496;51.040;13.680;2024-03-06T10:21:05;8.30;;;7.60;;
25637;SDS011;13496;51.040;13.680;2024-03-06T10:26:07;8.38;;;7.68;;
25637;SDS011;13496;51.040;13.680;2024-03-06T10:31:09;8.02;;;7.32;;
25637;SDS011;13496;51.040;13.680;2024-03-06T10:36:11;8.05;;;7.35;;
25637;SDS011;13496;51.040;13.680;2024-03-06T10:41:14;7.78;;;7.07;;
25637;SDS011;13496;51.040;13.680;2024-03-06T10:46:16;8.43;;;7.72;;
25637;SDS011;13496;51.040;13.680;2024-03-06T10:51:21;8.00;;;7.30;;
25637;SDS011;13496;51.040;13.680;2024-03-06T10:56:24;8.60;;;7.90;;
25637;SDS011;13496;51.040;13.680;2024-03-06T11:01:26;8.02;;;7.30;;
25637;SDS011;13496;51.040;13.680;2024-03-06T11:06:33;8.45;;;7.75;;
25637;SDS011;13496;51.040;13.680;2024-03-06T11:11:39;9.10;;;8.30;;
25637;SDS011;13496;51.040;13.680;2024-03-06T11:17:06;8.55;;;7.75;;
25637;SDS011;13496;51.040;13.680;2024-03-06T11:22:10;8.75;;;7.95;;
25637;SDS011;13496;51.040;13.680;2024-03-06T11:27:12;9.07;;;7.75;;
25637;SDS011;13496;51.040;13.680;2024-03-06T11:32:16;9.52;;;8.63;;
25637;SDS011;13496;51.040;13.680;2024-03-06T11:37:20;8.00;;;7.30;;
25637;SDS011;13496;51.040;13.680;2024-03-06T11:42:34;8.73;;;7.95;;
25637;SDS011;13496;51.040;13.680;2024-03-06T11:47:59;8.60;;;7.82;;
25637;SDS011;13496;51.040;13.680;2024-03-06T11:53:02;8.25;;;7.45;;
25637;SDS011;13496;51.040;13.680;2024-03-06T11:58:04;8.82;;;8.13;;
25637;SDS011;13496;51.040;13.680;2024-03-06T12:03:06;8.00;;;7.30;;
25637;SDS011;13496;51.040;13.680;2024-03-06T12:08:08;8.57;;;7.88;;
25637;SDS011;13496;51.040;13.680;2024-03-06T12:13:10;8.02;;;7.43;;
25637;SDS011;13496;51.040;13.680;2024-03-06T12:18:12;7.90;;;7.20;;
25637;SDS011;13496;51.040;13.680;2024-03-06T12:23:20;8.38;;;7.68;;
25637;SDS011;13496;51.040;13.680;2024-03-06T12:28:24;8.80;;;8.00;;
25637;SDS011;13496;51.040;13.680;2024-03-06T12:33:26;9.25;;;8.35;;
25637;SDS011;13496;51.040;13.680;2024-03-06T12:38:28;9.05;;;8.25;;
25637;SDS011;13496;51.040;13.680;2024-03-06T12:43:31;8.88;;;7.97;;
25637;SDS011;13496;51.040;13.680;2024-03-06T12:48:33;8.32;;;7.53;;
25637;SDS011;13496;51.040;13.680;2024-03-06T12:53:34;8.23;;;7.53;;
25637;SDS011;13496;51.040;13.680;2024-03-06T12:58:36;8.27;;;7.57;;
25637;SDS011;13496;51.040;13.680;2024-03-06T13:03:38;8.45;;;7.65;;
25637;SDS011;13496;51.040;13.680;2024-03-06T13:08:40;8.18;;;7.47;;
25637;SDS011;13496;51.040;13.680;2024-03-06T13:13:42;8.60;;;7.80;;
25637;SDS011;13496;51.040;13.680;2024-03-06T13:18:43;9.05;;;8.25;;
25637;SDS011;13496;51.040;13.680;2024-03-06T13:23:45;8.90;;;8.05;;
25637;SDS011;13496;51.040;13.680;2024-03-06T13:28:47;8.45;;;7.70;;
25637;SDS011;13496;51.040;13.680;2024-03-06T13:33:49;8.07;;;7.38;;
25637;SDS011;13496;51.040;13.680;2024-03-06T13:38:51;8.10;;;7.40;;
25637;SDS011;13496;51.040;13.680;2024-03-06T13:43:53;9.13;;;8.32;;
25637;SDS011;13496;51.040;13.680;2024-03-06T13:48:55;8.85;;;7.95;;
25637;SDS011;13496;51.040;13.680;2024-03-06T13:53:57;8.52;;;7.75;;
25637;SDS011;13496;51.040;13.680;2024-03-06T13:58:59;8.23;;;7.53;;
25637;SDS011;13496;51.040;13.680;2024-03-06T14:04:01;8.70;;;7.90;;
25637;SDS011;13496;51.040;13.680;2024-03-06T14:09:02;8.38;;;7.68;;
25637;SDS011;13496;51.040;13.680;2024-03-06T14:14:05;8.77;;;7.93;;
25637;SDS011;13496;51.040;13.680;2024-03-06T14:19:07;8.27;;;7.55;;
25637;SDS011;13496;51.040;13.680;2024-03-06T14:24:10;8.30;;;7.50;;
25637;SDS011;13496;51.040;13.680;2024-03-06T14:29:11;8.15;;;7.45;;
25637;SDS011;13496;51.040;13.680;2024-03-06T14:34:13;8.15;;;7.45;;
25637;SDS011;13496;51.040;13.680;2024-03-06T14:39:15;8.43;;;7.72;;
25637;SDS011;13496;51.040;13.680;2024-03-06T14:44:17;8.55;;;7.85;;
25637;SDS011;13496;51.040;13.680;2024-03-06T14:49:19;7.80;;;7.03;;
25637;SDS011;13496;51.040;13.680;2024-03-06T14:54:21;8.38;;;7.65;;
25637;SDS011;13496;51.040;13.680;2024-03-06T14:59:27;7.93;;;7.22;;
25637;SDS011;13496;51.040;13.680;2024-03-06T15:04:28;8.65;;;7.78;;
25637;SDS011;13496;51.040;13.680;2024-03-06T15:09:31;8.30;;;7.60;;
25637;SDS011;13496;51.040;13.680;2024-03-06T15:14:33;8.30;;;7.60;;
25637;SDS011;13496;51.040;13.680;2024-03-06T15:19:35;8.30;;;7.45;;
25637;SDS011;13496;51.040;13.680;2024-03-06T15:24:39;7.78;;;7.07;;
25637;SDS011;13496;51.040;13.680;2024-03-06T15:29:40;8.48;;;7.57;;
25637;SDS011;13496;51.040;13.680;2024-03-06T15:34:42;7.97;;;7.18;;
25637;SDS011;13496;51.040;13.680;2024-03-06T15:39:44;7.80;;;7.00;;
25637;SDS011;13496;51.040;13.680;2024-03-06T15:44:46;8.70;;;7.53;;
25637;SDS011;13496;51.040;13.680;2024-03-06T15:49:48;7.90;;;7.20;;
25637;SDS011;13496;51.040;13.680;2024-03-06T15:54:50;7.22;;;6.63;;
25637;SDS011;13496;51.040;13.680;2024-03-06T15:59:52;7.40;;;6.70;;
25637;SDS011;13496;51.040;13.680;2024-03-06T16:04:54;8.40;;;6.80;;
25637;SDS011;13496;51.040;13.680;2024-03-06T16:09:55;7.40;;;6.60;;
25637;SDS011;13496;51.040;13.680;2024-03-06T16:14:58;8.30;;;6.68;;
25637;SDS011;13496;51.040;13.680;2024-03-06T16:20:05;9.85;;;7.32;;
25637;SDS011;13496;51.040;13.680;2024-03-06T16:25:08;10.57;;;7.05;;
25637;SDS011;13496;51.040;13.680;2024-03-06T16:30:10;8.82;;;6.70;;
25637;SDS011;13496;51.040;13.680;2024-03-06T16:35:12;7.57;;;6.53;;
25637;SDS011;13496;51.040;13.680;2024-03-06T16:40:14;8.30;;;6.28;;
25637;SDS011;13496;51.040;13.680;2024-03-06T16:45:16;6.82;;;6.05;;
25637;SDS011;13496;51.040;13.680;2024-03-06T16:50:18;8.25;;;6.25;;
25637;SDS011;13496;51.040;13.680;2024-03-06T16:55:21;9.05;;;6.35;;
25637;SDS011;13496;51.040;13.680;2024-03-06T17:00:23;6.78;;;6.03;;
25637;SDS011;13496;51.040;13.680;2024-03-06T17:05:25;10.23;;;6.95;;
25637;SDS011;13496;51.040;13.680;2024-03-06T17:10:27;8.85;;;6.95;;
25637;SDS011;13496;51.040;13.680;2024-03-06T17:15:31;8.68;;;6.65;;
25637;SDS011;13496;51.040;13.680;2024-03-06T17:20:33;7.65;;;6.25;;
25637;SDS011;13496;51.040;13.680;2024-03-06T17:25:35;8.52;;;6.38;;
25637;SDS011;13496;51.040;13.680;2024-03-06T17:30:37;9.10;;;6.55;;
25637;SDS011;13496;51.040;13.680;2024-03-06T17:35:39;7.10;;;6.40;;
25637;SDS011;13496;51.040;13.680;2024-03-06T17:40:41;7.70;;;6.20;;
25637;SDS011;13496;51.040;13.680;2024-03-06T17:45:44;6.28;;;5.65;;
25637;SDS011;13496;51.040;13.680;2024-03-06T17:50:46;6.50;;;5.88;;
25637;SDS011;13496;51.040;13.680;2024-03-06T17:55:48;8.07;;;5.90;;
25637;SDS011;13496;51.040;13.680;2024-03-06T18:00:50;7.25;;;6.18;;
25637;SDS011;13496;51.040;13.680;2024-03-06T18:05:52;7.95;;;5.75;;
25637;SDS011;13496;51.040;13.680;2024-03-06T18:10:54;7.25;;;5.97;;
25637;SDS011;13496;51.040;13.680;2024-03-06T18:15:56;6.20;;;5.28;;
25637;SDS011;13496;51.040;13.680;2024-03-06T18:20:58;7.05;;;6.07;;
25637;SDS011;13496;51.040;13.680;2024-03-06T18:25:59;6.75;;;6.05;;
25637;SDS011;13496;51.040;13.680;2024-03-06T18:31:01;6.28;;;5.18;;
25637;SDS011;13496;51.040;13.680;2024-03-06T18:36:03;6.07;;;5.45;;
25637;SDS011;13496;51.040;13.680;2024-03-06T18:41:05;5.82;;;5.30;;
25637;SDS011;13496;51.040;13.680;2024-03-06T18:46:07;8.10;;;5.40;;
25637;SDS011;13496;51.040;13.680;2024-03-06T18:51:08;5.97;;;5.25;;
25637;SDS011;13496;51.040;13.680;2024-03-06T18:56:10;5.65;;;5.05;;
25637;SDS011;13496;51.040;13.680;2024-03-06T19:01:12;6.75;;;5.65;;
25637;SDS011;13496;51.040;13.680;2024-03-06T19:06:15;5.72;;;5.00;;
25637;SDS011;13496;51.040;13.680;2024-03-06T19:11:17;7.15;;;5.03;;
25637;SDS011;13496;51.040;13.680;2024-03-06T19:16:19;11.02;;;5.50;;
25637;SDS011;13496;51.040;13.680;2024-03-06T19:21:21;5.93;;;5.18;;
25637;SDS011;13496;51.040;13.680;2024-03-06T19:26:23;6.75;;;4.85;;
25637;SDS011;13496;51.040;13.680;2024-03-06T19:31:25;6.95;;;5.40;;
25637;SDS011;13496;51.040;13.680;2024-03-06T19:36:26;5.20;;;4.68;;
25637;SDS011;13496;51.040;13.680;2024-03-06T19:41:28;8.63;;;5.15;;
25637;SDS011;13496;51.040;13.680;2024-03-06T19:46:30;6.45;;;5.28;;
25637;SDS011;13496;51.040;13.680;2024-03-06T19:51:32;5.30;;;4.80;;
25637;SDS011;13496;51.040;13.680;2024-03-06T19:56:34;5.53;;;4.90;;
25637;SDS011;13496;51.040;13.680;2024-03-06T20:01:36;6.22;;;5.00;;
25637;SDS011;13496;51.040;13.680;2024-03-06T20:06:38;5.30;;;4.63;;
25637;SDS011;13496;51.040;13.680;2024-03-06T20:11:40;5.18;;;4.70;;
25637;SDS011;13496;51.040;13.680;2024-03-06T20:16:42;4.97;;;4.32;;
25637;SDS011;13496;51.040;13.680;2024-03-06T20:21:44;5.15;;;4.68;;
25637;SDS011;13496;51.040;13.680;2024-03-06T20:26:48;6.93;;;5.07;;
25637;SDS011;13496;51.040;13.680;2024-03-06T20:31:50;5.05;;;4.32;;
25637;SDS011;13496;51.040;13.680;2024-03-06T20:36:52;6.13;;;5.18;;
25637;SDS011;13496;51.040;13.680;2024-03-06T20:41:54;5.53;;;4.90;;
25637;SDS011;13496;51.040;13.680;2024-03-06T20:46:56;6.53;;;4.78;;
25637;SDS011;13496;51.040;13.680;2024-03-06T20:51:59;6.57;;;4.80;;
25637;SDS011;13496;51.040;13.680;2024-03-06T20:57:01;5.53;;;5.03;;
25637;SDS011;13496;51.040;13.680;2024-03-06T21:02:03;5.05;;;4.57;;
25637;SDS011;13496;51.040;13.680;2024-03-06T21:07:05;4.97;;;4.57;;
25637;SDS011;13496;51.040;13.680;2024-03-06T21:12:07;4.55;;;4.15;;
25637;SDS011;13496;51.040;13.680;2024-03-06T21:17:09;5.70;;;4.72;;
25637;SDS011;13496;51.040;13.680;2024-03-06T21:22:11;5.10;;;4.57;;
25637;SDS011;13496;51.040;13.680;2024-03-06T21:27:15;5.03;;;4.53;;
25637;SDS011;13496;51.040;13.680;2024-03-06T21:32:17;5.18;;;4.70;;
25637;SDS011;13496;51.040;13.680;2024-03-06T21:37:19;5.25;;;4.80;;
25637;SDS011;13496;51.040;13.680;2024-03-06T21:42:21;4.97;;;4.57;;
25637;SDS011;13496;51.040;13.680;2024-03-06T21:47:23;5.38;;;4.88;;
25637;SDS011;13496;51.040;13.680;2024-03-06T21:52:25;5.38;;;4.75;;
25637;SDS011;13496;51.040;13.680;2024-03-06T21:57:27;5.45;;;4.95;;
25637;SDS011;13496;51.040;13.680;2024-03-06T22:02:28;5.00;;;4.60;;
25637;SDS011;13496;51.040;13.680;2024-03-06T22:07:30;6.38;;;5.18;;
25637;SDS011;13496;51.040;13.680;2024-03-06T22:12:32;6.13;;;5.13;;
25637;SDS011;13496;51.040;13.680;2024-03-06T22:17:34;6.10;;;4.40;;
25637;SDS011;13496;51.040;13.680;2024-03-06T22:22:36;6.18;;;4.85;;
25637;SDS011;13496;51.040;13.680;2024-03-06T22:27:38;5.72;;;5.22;;
25637;SDS011;13496;51.040;13.680;2024-03-06T22:32:40;5.53;;;5.03;;
25637;SDS011;13496;51.040;13.680;2024-03-06T22:37:42;5.68;;;5.13;;
25637;SDS011;13496;51.040;13.680;2024-03-06T22:42:43;5.40;;;4.90;;
25637;SDS011;13496;51.040;13.680;2024-03-06T22:47:45;5.68;;;5.10;;
25637;SDS011;13496;51.040;13.680;2024-03-06T22:52:47;5.30;;;4.80;;
25637;SDS011;13496;51.040;13.680;2024-03-06T22:57:49;5.45;;;4.90;;
25637;SDS011;13496;51.040;13.680;2024-03-06T23:02:50;5.70;;;5.20;;
25637;SDS011;13496;51.040;13.680;2024-03-06T23:07:52;5.50;;;5.00;;
25637;SDS011;13496;51.040;13.680;2024-03-06T23:12:55;5.22;;;4.72;;
25637;SDS011;13496;51.040;13.680;2024-03-06T23:17:57;5.25;;;4.82;;
25637;SDS011;13496;51.040;13.680;2024-03-06T23:22:59;5.10;;;4.68;;
25637;SDS011;13496;51.040;13.680;2024-03-06T23:28:00;5.97;;;5.45;;
25637;SDS011;13496;51.040;13.680;2024-03-06T23:33:03;6.30;;;4.95;;
25637;SDS011;13496;51.040;13.680;2024-03-06T23:38:06;5.72;;;5.18;;
25637;SDS011;13496;51.040;13.680;2024-03-06T23:43:08;5.60;;;5.10;;
25637;SDS011;13496;51.040;13.680;2024-03-06T23:48:10;5.55;;;5.05;;
25637;SDS011;13496;51.040;13.680;2024-03-06T23:53:12;6.28;;;5.68;;
25637;SDS011;13496;51.040;13.680;2024-03-06T23:58:13;5.68;;;5.18;;
